sensor_id;sensor_type;location;lat;lon;timestamp;pressure;altitude;pressure_sealevel;temperature;humidity
78745;BME280;68064;53.100;8.824;2024-01-06T00:00:38;100412.44;;;2.03;100.00
78745;BME280;68064;53.100;8.824;2024-01-06T00:01:40;100411.91;;;2.07;100.00
78745;BME280;68064;53.100;8.824;2024-01-06T00:02:41;100419.81;;;2.00;100.00
78745;BME280;68064;53.100;8.824;2024-01-06T00:03:42;100421.66;;;2.02;100.00
78745;BME280;68064;53.100;8.824;2024-01-06T00:04:43;100418.16;;;2.00;100.00
78745;BME280;68064;53.100;8.824;2024-01-06T00:05:44;100413.31;;;2.03;100.00
78745;BME280;68064;53.100;8.824;2024-01-06T00:06:45;100413.19;;;2.02;100.00
78745;BME280;68064;53.100;8.824;2024-01-06T00:07:46;100424.94;;;2.01;100.00
78745;BME280;68064;53.100;8.824;2024-01-06T00:08:47;100410.47;;;1.99;100.00
78745;BME280;68064;53.100;8.824;2024-01-06T00:09:48;100422.53;;;2.03;100.00
78745;BME280;68064;53.100;8.824;2024-01-06T00:10:49;100419.91;;;2.01;100.00
78745;BME280;68064;53.100;8.824;2024-01-06T00:11:50;100422.84;;;2.07;100.00
78745;BME280;68064;53.100;8.824;2024-01-06T00:12:51;100418.47;;;2.05;100.00
78745;BME280;68064;53.100;8.824;2024-01-06T00:13:52;100426.25;;;2.08;100.00
78745;BME280;68064;53.100;8.824;2024-01-06T00:14:54;100425.38;;;2.07;100.00
78745;BME280;68064;53.100;8.824;2024-01-06T00:15:56;100421.66;;;2.02;100.00
78745;BME280;68064;53.100;8.824;2024-01-06T00:16:57;100422.31;;;2.00;100.00
78745;BME280;68064;53.100;8.824;2024-01-06T00:17:58;100431.66;;;2.01;100.00
78745;BME280;68064;53.100;8.824;2024-01-06T00:19:00;100434.81;;;1.98;100.00
78745;BME280;68064;53.100;8.824;2024-01-06T00:20:01;100424.84;;;2.00;100.00
78745;BME280;68064;53.100;8.824;2024-01-06T00:21:02;100429.22;;;2.02;100.00
78745;BME280;68064;53.100;8.824;2024-01-06T00:22:03;100431.53;;;1.99;100.00
78745;BME280;68064;53.100;8.824;2024-01-06T00:23:04;100434.81;;;1.98;100.00
78745;BME280;68064;53.100;8.824;2024-01-06T00:24:05;100437.47;;;2.00;100.00
78745;BME280;68064;53.100;8.824;2024-01-06T00:25:06;100430.00;;;2.01;100.00
78745;BME280;68064;53.100;8.824;2024-01-06T00:26:08;100437.47;;;2.00;100.00
78745;BME280;68064;53.100;8.824;2024-01-06T00:27:10;100434.75;;;1.97;100.00
78745;BME280;68064;53.100;8.824;2024-01-06T00:28:11;100435.50;;;1.96;100.00
78745;BME280;68064;53.100;8.824;2024-01-06T00:29:12;100440.66;;;1.97;100.00
78745;BME280;68064;53.100;8.824;2024-01-06T00:30:13;100444.03;;;1.98;100.00
78745;BME280;68064;53.100;8.824;2024-01-06T00:31:16;100433.94;;;1.98;100.00
78745;BME280;68064;53.100;8.824;2024-01-06T00:32:17;100444.03;;;1.98;100.00
78745;BME280;68064;53.100;8.824;2024-01-06T00:33:18;100436.25;;;1.95;100.00
78745;BME280;68064;53.100;8.824;2024-01-06T00:34:19;100448.88;;;1.95;100.00
78745;BME280;68064;53.100;8.824;2024-01-06T00:35:20;100448.88;;;1.95;100.00
78745;BME280;68064;53.100;8.824;2024-01-06T00:36:21;100450.44;;;1.93;100.00
78745;BME280;68064;53.100;8.824;2024-01-06T00:37:22;100447.91;;;1.93;100.00
78745;BME280;68064;53.100;8.824;2024-01-06T00:38:23;100450.44;;;1.93;100.00
78745;BME280;68064;53.100;8.824;2024-01-06T00:39:24;100455.47;;;1.93;100.00
78745;BME280;68064;53.100;8.824;2024-01-06T00:40:25;100458.75;;;1.92;100.00
78745;BME280;68064;53.100;8.824;2024-01-06T00:41:26;100454.50;;;1.91;100.00
78745;BME280;68064;53.100;8.824;2024-01-06T00:42:27;100464.47;;;1.89;100.00
78745;BME280;68064;53.100;8.824;2024-01-06T00:43:28;100453.06;;;1.94;100.00
78745;BME280;68064;53.100;8.824;2024-01-06T00:44:30;100450.34;;;1.91;100.00
78745;BME280;68064;53.100;8.824;2024-01-06T00:45:31;100449.44;;;1.91;100.00
78745;BME280;68064;53.100;8.824;2024-01-06T00:46:33;100454.50;;;1.91;100.00
78745;BME280;68064;53.100;8.824;2024-01-06T00:47:34;100457.25;;;1.94;100.00
78745;BME280;68064;53.100;8.824;2024-01-06T00:48:35;100463.03;;;1.93;100.00
78745;BME280;68064;53.100;8.824;2024-01-06T00:49:36;100454.59;;;1.92;100.00
78745;BME280;68064;53.100;8.824;2024-01-06T00:50:37;100458.88;;;1.93;100.00
78745;BME280;68064;53.100;8.824;2024-01-06T00:51:38;100459.19;;;1.98;100.00
78745;BME280;68064;53.100;8.824;2024-01-06T00:52:39;100458.41;;;1.99;100.00
78745;BME280;68064;53.100;8.824;2024-01-06T00:53:43;100464.22;;;1.98;100.00
78745;BME280;68064;53.100;8.824;2024-01-06T00:54:44;100469.50;;;1.89;100.00
78745;BME280;68064;53.100;8.824;2024-01-06T00:55:45;100464.91;;;1.95;100.00
78745;BME280;68064;53.100;8.824;2024-01-06T00:56:46;100469.63;;;1.91;100.00
78745;BME280;68064;53.100;8.824;2024-01-06T00:57:48;100477.22;;;1.91;100.00
78745;BME280;68064;53.100;8.824;2024-01-06T00:58:49;100477.09;;;1.89;100.00
78745;BME280;68064;53.100;8.824;2024-01-06T00:59:50;100473.47;;;1.86;100.00
78745;BME280;68064;53.100;8.824;2024-01-06T01:00:51;100473.69;;;1.89;100.00
78745;BME280;68064;53.100;8.824;2024-01-06T01:01:54;100475.56;;;1.91;100.00
78745;BME280;68064;53.100;8.824;2024-01-06T01:02:55;100476.63;;;1.95;100.00
78745;BME280;68064;53.100;8.824;2024-01-06T01:03:56;100473.13;;;1.93;100.00
78745;BME280;68064;53.100;8.824;2024-01-06T01:04:57;100478.19;;;1.93;100.00
78745;BME280;68064;53.100;8.824;2024-01-06T01:05:58;100485.66;;;1.91;100.00
78745;BME280;68064;53.100;8.824;2024-01-06T01:06:59;100478.09;;;1.91;100.00
78745;BME280;68064;53.100;8.824;2024-01-06T01:08:00;100475.00;;;1.95;100.00
78745;BME280;68064;53.100;8.824;2024-01-06T01:09:01;100487.53;;;1.94;100.00
78745;BME280;68064;53.100;8.824;2024-01-06T01:10:03;100482.91;;;1.88;100.00
78745;BME280;68064;53.100;8.824;2024-01-06T01:11:04;100484.56;;;1.88;100.00
78745;BME280;68064;53.100;8.824;2024-01-06T01:12:06;100488.72;;;1.87;100.00
78745;BME280;68064;53.100;8.824;2024-01-06T01:13:06;100488.38;;;1.83;100.00
78745;BME280;68064;53.100;8.824;2024-01-06T01:14:08;100484.34;;;1.85;100.00
78745;BME280;68064;53.100;8.824;2024-01-06T01:15:09;100487.19;;;1.89;100.00
78745;BME280;68064;53.100;8.824;2024-01-06T01:16:10;100487.31;;;1.91;100.00
78745;BME280;68064;53.100;8.824;2024-01-06T01:17:12;100495.97;;;1.94;100.00
78745;BME280;68064;53.100;8.824;2024-01-06T01:18:14;100488.28;;;1.93;100.00
78745;BME280;68064;53.100;8.824;2024-01-06T01:19:15;100493.53;;;1.96;100.00
78745;BME280;68064;53.100;8.824;2024-01-06T01:20:16;100494.09;;;1.92;100.00
78745;BME280;68064;53.100;8.824;2024-01-06T01:21:17;100491.56;;;1.92;100.00
78745;BME280;68064;53.100;8.824;2024-01-06T01:22:18;100492.44;;;1.92;100.00
78745;BME280;68064;53.100;8.824;2024-01-06T01:23:22;100495.63;;;1.90;100.00
78745;BME280;68064;53.100;8.824;2024-01-06T01:24:23;100497.41;;;1.91;100.00
78745;BME280;68064;53.100;8.824;2024-01-06T01:25:25;100492.34;;;1.91;100.00
78745;BME280;68064;53.100;8.824;2024-01-06T01:26:26;100492.13;;;1.88;100.00
78745;BME280;68064;53.100;8.824;2024-01-06T01:27:27;100497.94;;;1.87;100.00
78745;BME280;68064;53.100;8.824;2024-01-06T01:28:28;100497.41;;;1.91;100.00
78745;BME280;68064;53.100;8.824;2024-01-06T01:29:35;100502.09;;;1.86;100.00
78745;BME280;68064;53.100;8.824;2024-01-06T01:30:36;100497.72;;;1.84;100.00
78745;BME280;68064;53.100;8.824;2024-01-06T01:31:43;100506.41;;;1.87;100.00
78745;BME280;68064;53.100;8.824;2024-01-06T01:32:46;100506.81;;;1.93;100.00
78745;BME280;68064;53.100;8.824;2024-01-06T01:33:49;100506.41;;;1.87;100.00
78745;BME280;68064;53.100;8.824;2024-01-06T01:34:51;100507.47;;;1.79;100.00
78745;BME280;68064;53.100;8.824;2024-01-06T01:35:52;100509.91;;;1.78;100.00
78745;BME280;68064;53.100;8.824;2024-01-06T01:36:53;100507.38;;;1.78;100.00
78745;BME280;68064;53.100;8.824;2024-01-06T01:37:54;100510.13;;;1.81;100.00
78745;BME280;68064;53.100;8.824;2024-01-06T01:38:55;100511.53;;;1.77;100.00
78745;BME280;68064;53.100;8.824;2024-01-06T01:39:56;100514.41;;;1.82;100.00
78745;BME280;68064;53.100;8.824;2024-01-06T01:40:57;100515.16;;;1.81;100.00
78745;BME280;68064;53.100;8.824;2024-01-06T01:41:58;100515.84;;;1.78;100.00
78745;BME280;68064;53.100;8.824;2024-01-06T01:42:59;100517.69;;;1.81;100.00
78745;BME280;68064;53.100;8.824;2024-01-06T01:44:00;100520.00;;;1.78;100.00
78745;BME280;68064;53.100;8.824;2024-01-06T01:45:01;100528.44;;;1.78;100.00
78745;BME280;68064;53.100;8.824;2024-01-06T01:46:02;100520.53;;;1.74;100.00
78745;BME280;68064;53.100;8.824;2024-01-06T01:47:04;100526.56;;;1.76;100.00
78745;BME280;68064;53.100;8.824;2024-01-06T01:48:07;100522.63;;;1.79;100.00
78745;BME280;68064;53.100;8.824;2024-01-06T01:49:09;100531.59;;;1.76;100.00
78745;BME280;68064;53.100;8.824;2024-01-06T01:50:11;100529.31;;;1.79;100.00
78745;BME280;68064;53.100;8.824;2024-01-06T01:51:13;100532.06;;;1.82;100.00
78745;BME280;68064;53.100;8.824;2024-01-06T01:52:15;100522.63;;;1.79;100.00
78745;BME280;68064;53.100;8.824;2024-01-06T01:53:16;100538.63;;;1.80;100.00
78745;BME280;68064;53.100;8.824;2024-01-06T01:54:17;100532.41;;;1.75;100.00
78745;BME280;68064;53.100;8.824;2024-01-06T01:55:19;100537.66;;;1.78;100.00
78745;BME280;68064;53.100;8.824;2024-01-06T01:56:20;100541.06;;;1.78;100.00
78745;BME280;68064;53.100;8.824;2024-01-06T01:57:23;100535.91;;;1.77;100.00
78745;BME280;68064;53.100;8.824;2024-01-06T01:58:25;100532.63;;;1.78;100.00
78745;BME280;68064;53.100;8.824;2024-01-06T01:59:27;100539.53;;;1.80;100.00
78745;BME280;68064;53.100;8.824;2024-01-06T02:00:29;100538.53;;;1.78;100.00
78745;BME280;68064;53.100;8.824;2024-01-06T02:01:30;100536.66;;;1.76;100.00
78745;BME280;68064;53.100;8.824;2024-01-06T02:02:31;100546.66;;;1.74;100.00
78745;BME280;68064;53.100;8.824;2024-01-06T02:03:34;100548.28;;;1.74;100.00
78745;BME280;68064;53.100;8.824;2024-01-06T02:04:36;100546.22;;;1.68;100.00
78745;BME280;68064;53.100;8.824;2024-01-06T02:05:37;100543.78;;;1.70;100.00
78745;BME280;68064;53.100;8.824;2024-01-06T02:06:38;100542.25;;;1.72;100.00
78745;BME280;68064;53.100;8.824;2024-01-06T02:07:40;100552.13;;;1.69;100.00
78745;BME280;68064;53.100;8.824;2024-01-06T02:08:41;100549.84;;;1.72;100.00
78745;BME280;68064;53.100;8.824;2024-01-06T02:09:42;100541.16;;;1.68;100.00
78745;BME280;68064;53.100;8.824;2024-01-06T02:10:44;100555.09;;;1.75;100.00
78745;BME280;68064;53.100;8.824;2024-01-06T02:11:45;100547.84;;;1.68;100.00
78745;BME280;68064;53.100;8.824;2024-01-06T02:12:46;100550.59;;;1.71;100.00
78745;BME280;68064;53.100;8.824;2024-01-06T02:13:47;100552.22;;;1.70;100.00
78745;BME280;68064;53.100;8.824;2024-01-06T02:14:48;100554.97;;;1.73;100.00
78745;BME280;68064;53.100;8.824;2024-01-06T02:15:49;100555.31;;;1.78;100.00
78745;BME280;68064;53.100;8.824;2024-01-06T02:16:50;100560.91;;;1.74;100.00
78745;BME280;68064;53.100;8.824;2024-01-06T02:17:51;100557.63;;;1.75;100.00
78745;BME280;68064;53.100;8.824;2024-01-06T02:18:54;100555.09;;;1.75;100.00
78745;BME280;68064;53.100;8.824;2024-01-06T02:19:55;100561.13;;;1.77;100.00
78745;BME280;68064;53.100;8.824;2024-01-06T02:20:58;100562.34;;;1.82;100.00
78745;BME280;68064;53.100;8.824;2024-01-06T02:22:00;100562.44;;;1.83;100.00
78745;BME280;68064;53.100;8.824;2024-01-06T02:23:01;100564.63;;;1.79;100.00
78745;BME280;68064;53.100;8.824;2024-01-06T02:24:03;100554.09;;;1.73;100.00
78745;BME280;68064;53.100;8.824;2024-01-06T02:25:06;100557.63;;;1.75;100.00
78745;BME280;68064;53.100;8.824;2024-01-06T02:26:09;100563.22;;;1.71;100.00
78745;BME280;68064;53.100;8.824;2024-01-06T02:27:10;100564.84;;;1.70;100.00
78745;BME280;68064;53.100;8.824;2024-01-06T02:28:11;100558.91;;;1.70;100.00
78745;BME280;68064;53.100;8.824;2024-01-06T02:29:13;100559.94;;;1.72;100.00
78745;BME280;68064;53.100;8.824;2024-01-06T02:30:14;100562.09;;;1.67;100.00
78745;BME280;68064;53.100;8.824;2024-01-06T02:31:15;100567.38;;;1.70;100.00
78745;BME280;68064;53.100;8.824;2024-01-06T02:32:16;100568.78;;;1.67;100.00
78745;BME280;68064;53.100;8.824;2024-01-06T02:33:17;100568.03;;;1.68;100.00
78745;BME280;68064;53.100;8.824;2024-01-06T02:34:20;100564.53;;;1.66;100.00
78745;BME280;68064;53.100;8.824;2024-01-06T02:35:22;100564.84;;;1.70;100.00
78745;BME280;68064;53.100;8.824;2024-01-06T02:36:23;100568.38;;;1.72;100.00
78745;BME280;68064;53.100;8.824;2024-01-06T02:37:25;100570.56;;;1.68;100.00
78745;BME280;68064;53.100;8.824;2024-01-06T02:38:26;100564.84;;;1.70;100.00
78745;BME280;68064;53.100;8.824;2024-01-06T02:39:27;100572.31;;;1.69;100.00
78745;BME280;68064;53.100;8.824;2024-01-06T02:40:28;100568.03;;;1.68;100.00
78745;BME280;68064;53.100;8.824;2024-01-06T02:41:29;100576.13;;;1.64;100.00
78745;BME280;68064;53.100;8.824;2024-01-06T02:42:31;100577.91;;;1.65;100.00
78745;BME280;68064;53.100;8.824;2024-01-06T02:43:32;100575.25;;;1.63;100.00
78745;BME280;68064;53.100;8.824;2024-01-06T02:44:33;100579.00;;;1.68;100.00
78745;BME280;68064;53.100;8.824;2024-01-06T02:45:34;100580.84;;;1.59;100.00
78745;BME280;68064;53.100;8.824;2024-01-06T02:46:35;100586.44;;;1.55;100.00
78745;BME280;68064;53.100;8.824;2024-01-06T02:47:36;100588.72;;;1.52;100.00
78745;BME280;68064;53.100;8.824;2024-01-06T02:48:37;100590.72;;;1.56;100.00
78745;BME280;68064;53.100;8.824;2024-01-06T02:49:38;100589.63;;;1.52;100.00
78745;BME280;68064;53.100;8.824;2024-01-06T02:50:39;100586.44;;;1.55;100.00
78745;BME280;68064;53.100;8.824;2024-01-06T02:51:40;100594.00;;;1.55;100.00
78745;BME280;68064;53.100;8.824;2024-01-06T02:52:43;100593.00;;;1.53;100.00
78745;BME280;68064;53.100;8.824;2024-01-06T02:53:45;100590.94;;;1.59;100.00
78745;BME280;68064;53.100;8.824;2024-01-06T02:54:46;100590.16;;;1.60;100.00
78745;BME280;68064;53.100;8.824;2024-01-06T02:55:47;100598.50;;;1.59;100.00
78745;BME280;68064;53.100;8.824;2024-01-06T02:56:48;100595.31;;;1.62;100.00
78745;BME280;68064;53.100;8.824;2024-01-06T02:57:49;100597.09;;;1.63;100.00
78745;BME280;68064;53.100;8.824;2024-01-06T02:58:50;100594.22;;;1.58;100.00
78745;BME280;68064;53.100;8.824;2024-01-06T02:59:51;100603.09;;;1.53;100.00
78745;BME280;68064;53.100;8.824;2024-01-06T03:00:52;100605.06;;;1.57;100.00
78745;BME280;68064;53.100;8.824;2024-01-06T03:01:53;100600.47;;;1.63;100.00
78745;BME280;68064;53.100;8.824;2024-01-06T03:02:54;100592.44;;;1.57;100.00
78745;BME280;68064;53.100;8.824;2024-01-06T03:03:55;100606.63;;;1.67;100.00
78745;BME280;68064;53.100;8.824;2024-01-06T03:04:56;100600.69;;;1.66;100.00
78745;BME280;68064;53.100;8.824;2024-01-06T03:05:57;100610.03;;;1.67;100.00
78745;BME280;68064;53.100;8.824;2024-01-06T03:06:58;100600.69;;;1.66;100.00
78745;BME280;68064;53.100;8.824;2024-01-06T03:08:01;100602.91;;;1.62;100.00
78745;BME280;68064;53.100;8.824;2024-01-06T03:09:02;100596.31;;;1.64;100.00
78745;BME280;68064;53.100;8.824;2024-01-06T03:10:04;100605.28;;;1.60;100.00
78745;BME280;68064;53.100;8.824;2024-01-06T03:11:05;100599.41;;;1.59;100.00
78745;BME280;68064;53.100;8.824;2024-01-06T03:12:06;100608.69;;;1.60;100.00
78745;BME280;68064;53.100;8.824;2024-01-06T03:13:07;100603.66;;;1.60;100.00
78745;BME280;68064;53.100;8.824;2024-01-06T03:14:08;100602.00;;;1.61;100.00
78745;BME280;68064;53.100;8.824;2024-01-06T03:15:09;100602.91;;;1.62;100.00
78745;BME280;68064;53.100;8.824;2024-01-06T03:16:11;100605.94;;;1.57;100.00
78745;BME280;68064;53.100;8.824;2024-01-06T03:17:12;100606.84;;;1.58;100.00
78745;BME280;68064;53.100;8.824;2024-01-06T03:18:14;100606.84;;;1.58;100.00
78745;BME280;68064;53.100;8.824;2024-01-06T03:19:15;100614.84;;;1.52;100.00
78745;BME280;68064;53.100;8.824;2024-01-06T03:20:16;100610.53;;;1.51;100.00
78745;BME280;68064;53.100;8.824;2024-01-06T03:21:17;100611.00;;;1.57;100.00
78745;BME280;68064;53.100;8.824;2024-01-06T03:22:18;100618.25;;;1.53;100.00
78745;BME280;68064;53.100;8.824;2024-01-06T03:23:20;100614.69;;;1.51;100.00
78745;BME280;68064;53.100;8.824;2024-01-06T03:24:23;100610.66;;;1.53;100.00
78745;BME280;68064;53.100;8.824;2024-01-06T03:25:24;100620.09;;;1.55;100.00
78745;BME280;68064;53.100;8.824;2024-01-06T03:26:25;100622.19;;;1.61;100.00
78745;BME280;68064;53.100;8.824;2024-01-06T03:27:26;100625.81;;;1.53;100.00
78745;BME280;68064;53.100;8.824;2024-01-06T03:28:27;100625.81;;;1.53;100.00
78745;BME280;68064;53.100;8.824;2024-01-06T03:29:28;100627.00;;;1.58;100.00
78745;BME280;68064;53.100;8.824;2024-01-06T03:30:30;100624.25;;;1.55;100.00
78745;BME280;68064;53.100;8.824;2024-01-06T03:31:31;100627.84;;;1.47;100.00
78745;BME280;68064;53.100;8.824;2024-01-06T03:32:32;100628.94;;;1.50;100.00
78745;BME280;68064;53.100;8.824;2024-01-06T03:33:33;100627.31;;;1.51;100.00
78745;BME280;68064;53.100;8.824;2024-01-06T03:34:34;100628.19;;;1.51;100.00
78745;BME280;68064;53.100;8.824;2024-01-06T03:35:35;100627.22;;;1.49;100.00
78745;BME280;68064;53.100;8.824;2024-01-06T03:36:36;100631.25;;;1.47;100.00
78745;BME280;68064;53.100;8.824;2024-01-06T03:37:37;100629.19;;;1.53;100.00
78745;BME280;68064;53.100;8.824;2024-01-06T03:38:40;100631.38;;;1.49;100.00
78745;BME280;68064;53.100;8.824;2024-01-06T03:39:41;100634.31;;;1.43;100.00
78745;BME280;68064;53.100;8.824;2024-01-06T03:40:42;100638.19;;;1.50;100.00
78745;BME280;68064;53.100;8.824;2024-01-06T03:41:43;100635.19;;;1.44;100.00
78745;BME280;68064;53.100;8.824;2024-01-06T03:42:44;100645.41;;;1.45;100.00
78745;BME280;68064;53.100;8.824;2024-01-06T03:43:45;100638.59;;;1.44;100.00
78745;BME280;68064;53.100;8.824;2024-01-06T03:44:46;100641.09;;;1.44;100.00
78745;BME280;68064;53.100;8.824;2024-01-06T03:45:47;100650.97;;;1.41;100.00
78745;BME280;68064;53.100;8.824;2024-01-06T03:46:49;100646.94;;;1.43;100.00
78745;BME280;68064;53.100;8.824;2024-01-06T03:47:50;100648.22;;;1.38;100.00
78745;BME280;68064;53.100;8.824;2024-01-06T03:48:51;100655.03;;;1.39;100.00
78745;BME280;68064;53.100;8.824;2024-01-06T03:49:52;100646.69;;;1.40;100.00
78745;BME280;68064;53.100;8.824;2024-01-06T03:50:53;100655.25;;;1.42;100.00
78745;BME280;68064;53.100;8.824;2024-01-06T03:51:54;100648.56;;;1.43;100.00
78745;BME280;68064;53.100;8.824;2024-01-06T03:52:56;100647.41;;;1.49;100.00
78745;BME280;68064;53.100;8.824;2024-01-06T03:53:58;100651.19;;;1.44;100.00
78745;BME280;68064;53.100;8.824;2024-01-06T03:54:59;100652.81;;;1.44;100.00
78745;BME280;68064;53.100;8.824;2024-01-06T03:56:00;100650.31;;;1.44;100.00
78745;BME280;68064;53.100;8.824;2024-01-06T03:57:01;100655.25;;;1.42;100.00
78745;BME280;68064;53.100;8.824;2024-01-06T03:58:03;100659.63;;;1.45;100.00
78745;BME280;68064;53.100;8.824;2024-01-06T03:59:04;100659.41;;;1.42;100.00
78745;BME280;68064;53.100;8.824;2024-01-06T04:00:06;100660.63;;;1.47;100.00
78745;BME280;68064;53.100;8.824;2024-01-06T04:01:07;100664.16;;;1.49;100.00
78745;BME280;68064;53.100;8.824;2024-01-06T04:02:08;100660.88;;;1.50;100.00
78745;BME280;68064;53.100;8.824;2024-01-06T04:03:09;100663.03;;;1.45;100.00
78745;BME280;68064;53.100;8.824;2024-01-06T04:04:10;100666.22;;;1.43;100.00
78745;BME280;68064;53.100;8.824;2024-01-06T04:05:11;100670.69;;;1.35;100.00
78745;BME280;68064;53.100;8.824;2024-01-06T04:06:13;100671.66;;;1.37;100.00
78745;BME280;68064;53.100;8.824;2024-01-06T04:07:14;100674.19;;;1.37;100.00
78745;BME280;68064;53.100;8.824;2024-01-06T04:08:15;100667.03;;;1.32;100.00
78745;BME280;68064;53.100;8.824;2024-01-06T04:09:17;100662.34;;;1.36;100.00
78745;BME280;68064;53.100;8.824;2024-01-06T04:10:18;100674.59;;;1.32;100.00
78745;BME280;68064;53.100;8.824;2024-01-06T04:11:20;100675.72;;;1.35;100.00
78745;BME280;68064;53.100;8.824;2024-01-06T04:12:20;100672.44;;;1.36;100.00
78745;BME280;68064;53.100;8.824;2024-01-06T04:13:21;100669.69;;;1.33;100.00
78745;BME280;68064;53.100;8.824;2024-01-06T04:14:23;100670.81;;;1.37;100.00
78745;BME280;68064;53.100;8.824;2024-01-06T04:15:24;100670.16;;;1.39;100.00
78745;BME280;68064;53.100;8.824;2024-01-06T04:16:25;100671.13;;;1.41;100.00
78745;BME280;68064;53.100;8.824;2024-01-06T04:17:27;100675.94;;;1.38;100.00
78745;BME280;68064;53.100;8.824;2024-01-06T04:18:28;100676.69;;;1.37;100.00
78745;BME280;68064;53.100;8.824;2024-01-06T04:19:29;100683.41;;;1.37;100.00
78745;BME280;68064;53.100;8.824;2024-01-06T04:20:30;100686.91;;;1.39;100.00
78745;BME280;68064;53.100;8.824;2024-01-06T04:21:32;100682.41;;;1.35;100.00
78745;BME280;68064;53.100;8.824;2024-01-06T04:22:33;100686.69;;;1.36;100.00
78745;BME280;68064;53.100;8.824;2024-01-06T04:23:34;100695.78;;;1.34;100.00
78745;BME280;68064;53.100;8.824;2024-01-06T04:24:37;100688.97;;;1.33;100.00
78745;BME280;68064;53.100;8.824;2024-01-06T04:25:38;100690.19;;;1.38;100.00
78745;BME280;68064;53.100;8.824;2024-01-06T04:26:39;100688.97;;;1.33;100.00
78745;BME280;68064;53.100;8.824;2024-01-06T04:27:40;100690.25;;;1.28;100.00
78745;BME280;68064;53.100;8.824;2024-01-06T04:28:41;100690.63;;;1.32;100.00
78745;BME280;68064;53.100;8.824;2024-01-06T04:29:42;100683.03;;;1.32;100.00
78745;BME280;68064;53.100;8.824;2024-01-06T04:30:43;100694.34;;;1.37;100.00
78745;BME280;68064;53.100;8.824;2024-01-06T04:31:44;100683.03;;;1.32;100.00
78745;BME280;68064;53.100;8.824;2024-01-06T04:32:45;100688.84;;;1.31;100.00
78745;BME280;68064;53.100;8.824;2024-01-06T04:33:47;100692.38;;;1.33;100.00
78745;BME280;68064;53.100;8.824;2024-01-06T04:34:48;100692.38;;;1.33;100.00
78745;BME280;68064;53.100;8.824;2024-01-06T04:35:49;100692.75;;;1.28;100.00
78745;BME280;68064;53.100;8.824;2024-01-06T04:36:50;100690.38;;;1.29;100.00
78745;BME280;68064;53.100;8.824;2024-01-06T04:37:51;100703.22;;;1.32;100.00
78745;BME280;68064;53.100;8.824;2024-01-06T04:38:52;100705.97;;;1.35;100.00
78745;BME280;68064;53.100;8.824;2024-01-06T04:39:55;100695.28;;;1.28;100.00
78745;BME280;68064;53.100;8.824;2024-01-06T04:40:56;100700.34;;;1.28;100.00
78745;BME280;68064;53.100;8.824;2024-01-06T04:41:57;100700.75;;;1.22;100.00
78745;BME280;68064;53.100;8.824;2024-01-06T04:42:58;100702.09;;;1.29;100.00
78745;BME280;68064;53.100;8.824;2024-01-06T04:43:59;100696.19;;;1.28;100.00
78745;BME280;68064;53.100;8.824;2024-01-06T04:45:00;100704.28;;;1.24;100.00
78745;BME280;68064;53.100;8.824;2024-01-06T04:46:01;100702.53;;;1.23;100.00
78745;BME280;68064;53.100;8.824;2024-01-06T04:47:03;100708.41;;;1.34;100.00
78745;BME280;68064;53.100;8.824;2024-01-06T04:48:05;100704.63;;;1.29;100.00
78745;BME280;68064;53.100;8.824;2024-01-06T04:49:06;100706.81;;;1.24;100.00
78745;BME280;68064;53.100;8.824;2024-01-06T04:50:08;100708.31;;;1.22;100.00
78745;BME280;68064;53.100;8.824;2024-01-06T04:51:10;100705.69;;;1.21;100.00
78745;BME280;68064;53.100;8.824;2024-01-06T04:52:11;100707.31;;;1.20;100.00
78745;BME280;68064;53.100;8.824;2024-01-06T04:53:12;100709.72;;;1.19;100.00
78745;BME280;68064;53.100;8.824;2024-01-06T04:54:13;100716.53;;;1.20;100.00
78745;BME280;68064;53.100;8.824;2024-01-06T04:55:15;100703.91;;;1.20;100.00
78745;BME280;68064;53.100;8.824;2024-01-06T04:56:16;100710.59;;;1.19;100.00
78745;BME280;68064;53.100;8.824;2024-01-06T04:57:18;100714.13;;;1.21;100.00
78745;BME280;68064;53.100;8.824;2024-01-06T04:58:19;100703.91;;;1.20;100.00
78745;BME280;68064;53.100;8.824;2024-01-06T04:59:20;100717.50;;;1.22;100.00
78745;BME280;68064;53.100;8.824;2024-01-06T05:00:21;100717.50;;;1.22;100.00
78745;BME280;68064;53.100;8.824;2024-01-06T05:01:22;100712.22;;;1.19;100.00
78745;BME280;68064;53.100;8.824;2024-01-06T05:02:23;100718.91;;;1.18;100.00
78745;BME280;68064;53.100;8.824;2024-01-06T05:03:24;100717.94;;;1.16;100.00
78745;BME280;68064;53.100;8.824;2024-01-06T05:04:25;100730.47;;;1.26;100.00
78745;BME280;68064;53.100;8.824;2024-01-06T05:05:26;100724.47;;;1.24;100.00
78745;BME280;68064;53.100;8.824;2024-01-06T05:06:27;100736.28;;;1.25;100.00
78745;BME280;68064;53.100;8.824;2024-01-06T05:07:28;100729.72;;;1.27;100.00
78745;BME280;68064;53.100;8.824;2024-01-06T05:08:29;100732.03;;;1.24;100.00
78745;BME280;68064;53.100;8.824;2024-01-06T05:09:30;100732.63;;;1.22;100.00
78745;BME280;68064;53.100;8.824;2024-01-06T05:10:33;100733.41;;;1.21;100.00
78745;BME280;68064;53.100;8.824;2024-01-06T05:11:34;100737.06;;;1.24;100.00
78745;BME280;68064;53.100;8.824;2024-01-06T05:12:35;100743.09;;;1.26;100.00
78745;BME280;68064;53.100;8.824;2024-01-06T05:13:37;100742.44;;;1.29;100.00
78745;BME280;68064;53.100;8.824;2024-01-06T05:14:38;100742.09;;;1.24;100.00
78745;BME280;68064;53.100;8.824;2024-01-06T05:15:39;100750.03;;;1.19;100.00
78745;BME280;68064;53.100;8.824;2024-01-06T05:16:40;100751.41;;;1.25;100.00
78745;BME280;68064;53.100;8.824;2024-01-06T05:17:41;100748.41;;;1.19;100.00
78745;BME280;68064;53.100;8.824;2024-01-06T05:18:42;100758.38;;;1.18;100.00
78745;BME280;68064;53.100;8.824;2024-01-06T05:19:43;100757.75;;;1.20;100.00
78745;BME280;68064;53.100;8.824;2024-01-06T05:20:44;100756.72;;;1.18;100.00